Portada
METAR-TAF:

METAR-TAF

Aeropuertos :

Selma, Alabama, Estados Unidos

latitud: 32-20-38N, longitud: 086-59-16W, altitud: 51 m

Observación

El informe se hizo hace 2 horas y 56 minutos, a las 23:55 UTC
Viento 6 kt del norte con ráfagas de 11 kt
Temperatura 30°C
Humedad 35%
Presión 1017 hPa
Visibilidad: 16.1 km
Cielo despejado

METAR: KSEM 312355Z AUTO 01006G11KT 10SM CLR 30/13 A3004 RMK AO2

Hora: 21:51 (02:51 UTC)


TAF: falta

Observaciones y pronósticos meteorológicos de más de 4000 aeropuertos (mensajes METAR y TAF).

Los puntos amarillos y rojos representan las estaciones disponibles.

Ponga el ratón en el punto deseado para ver el nombre de la estación.

Haga clic para ver las observaciones y los pronósticos meteorológicos.

Para cambiar el mapa : haga clic en los botones verdes con una cruz de color negro para hacer un zoom, en el botón verde con un guión para alejar o en las flechas verdes para mapas adyacentes.


METAR-TAF: